sensor_id;sensor_type;location;lat;lon;timestamp;pressure;altitude;pressure_sealevel;temperature;humidity
64616;BME280;51027;42.162;24.754;2023-05-23T00:00:42;99477.47;;;15.02;100.00
64616;BME280;51027;42.162;24.754;2023-05-23T00:03:08;99472.13;;;14.88;100.00
64616;BME280;51027;42.162;24.754;2023-05-23T00:05:35;99471.88;;;14.92;100.00
64616;BME280;51027;42.162;24.754;2023-05-23T00:08:00;99470.44;;;15.01;100.00
64616;BME280;51027;42.162;24.754;2023-05-23T00:10:26;99474.03;;;14.86;100.00
64616;BME280;51027;42.162;24.754;2023-05-23T00:12:51;99461.13;;;14.80;100.00
64616;BME280;51027;42.162;24.754;2023-05-23T00:15:17;99463.97;;;14.77;100.00
64616;BME280;51027;42.162;24.754;2023-05-23T00:17:43;99450.50;;;14.65;100.00
64616;BME280;51027;42.162;24.754;2023-05-23T00:20:09;99467.31;;;14.50;100.00
64616;BME280;51027;42.162;24.754;2023-05-23T00:22:36;99460.88;;;14.24;100.00
64616;BME280;51027;42.162;24.754;2023-05-23T00:25:05;99447.63;;;14.08;100.00
64616;BME280;51027;42.162;24.754;2023-05-23T00:27:30;99420.91;;;13.97;100.00
64616;BME280;51027;42.162;24.754;2023-05-23T00:29:56;99456.53;;;14.07;100.00
64616;BME280;51027;42.162;24.754;2023-05-23T00:32:21;99449.53;;;14.06;100.00
64616;BME280;51027;42.162;24.754;2023-05-23T00:34:47;99460.41;;;14.02;100.00
64616;BME280;51027;42.162;24.754;2023-05-23T00:37:12;99457.84;;;14.00;100.00
64616;BME280;51027;42.162;24.754;2023-05-23T00:39:39;99455.34;;;14.13;100.00
64616;BME280;51027;42.162;24.754;2023-05-23T00:42:05;99456.66;;;13.90;100.00
64616;BME280;51027;42.162;24.754;2023-05-23T00:44:30;99460.63;;;14.13;100.00
64616;BME280;51027;42.162;24.754;2023-05-23T00:46:56;99432.63;;;13.93;100.00
64616;BME280;51027;42.162;24.754;2023-05-23T00:49:23;99443.66;;;13.86;100.00
64616;BME280;51027;42.162;24.754;2023-05-23T00:51:50;99467.47;;;13.86;100.00
64616;BME280;51027;42.162;24.754;2023-05-23T00:54:27;99461.09;;;13.74;100.00
64616;BME280;51027;42.162;24.754;2023-05-23T00:56:55;99459.72;;;13.67;100.00
64616;BME280;51027;42.162;24.754;2023-05-23T00:59:23;99451.78;;;13.67;100.00
64616;BME280;51027;42.162;24.754;2023-05-23T01:01:49;99454.94;;;13.73;100.00
64616;BME280;51027;42.162;24.754;2023-05-23T01:04:17;99421.56;;;13.55;100.00
64616;BME280;51027;42.162;24.754;2023-05-23T01:06:44;99448.63;;;13.76;100.00
64616;BME280;51027;42.162;24.754;2023-05-23T01:09:12;99448.88;;;13.71;100.00
64616;BME280;51027;42.162;24.754;2023-05-23T01:14:31;99446.22;;;13.87;100.00
64616;BME280;51027;42.162;24.754;2023-05-23T01:17:10;99452.03;;;13.78;100.00
64616;BME280;51027;42.162;24.754;2023-05-23T01:19:47;99448.28;;;13.82;100.00
64616;BME280;51027;42.162;24.754;2023-05-23T01:25:27;99441.03;;;13.70;100.00
64616;BME280;51027;42.162;24.754;2023-05-23T01:27:56;99443.31;;;13.76;100.00
64616;BME280;51027;42.162;24.754;2023-05-23T01:30:26;99442.31;;;13.63;100.00
64616;BME280;51027;42.162;24.754;2023-05-23T01:32:55;99443.13;;;13.79;100.00
64616;BME280;51027;42.162;24.754;2023-05-23T01:35:25;99436.94;;;13.80;100.00
64616;BME280;51027;42.162;24.754;2023-05-23T01:37:52;99443.06;;;13.65;100.00
64616;BME280;51027;42.162;24.754;2023-05-23T01:40:17;99435.56;;;13.57;100.00
64616;BME280;51027;42.162;24.754;2023-05-23T01:42:43;99445.38;;;13.71;100.00
64616;BME280;51027;42.162;24.754;2023-05-23T01:45:09;99442.81;;;13.85;100.00
64616;BME280;51027;42.162;24.754;2023-05-23T01:47:35;99436.38;;;13.89;100.00
64616;BME280;51027;42.162;24.754;2023-05-23T01:50:02;99447.69;;;13.61;100.00
64616;BME280;51027;42.162;24.754;2023-05-23T01:52:28;99417.72;;;13.29;100.00
64616;BME280;51027;42.162;24.754;2023-05-23T01:54:54;99442.06;;;13.51;100.00
64616;BME280;51027;42.162;24.754;2023-05-23T01:57:21;99439.41;;;13.51;100.00
64616;BME280;51027;42.162;24.754;2023-05-23T01:59:47;99442.66;;;13.41;100.00
64616;BME280;51027;42.162;24.754;2023-05-23T02:02:12;99442.19;;;13.48;100.00
64616;BME280;51027;42.162;24.754;2023-05-23T02:04:37;99433.41;;;13.48;100.00
64616;BME280;51027;42.162;24.754;2023-05-23T02:07:03;99440.69;;;13.60;100.00
64616;BME280;51027;42.162;24.754;2023-05-23T02:09:28;99442.16;;;13.50;100.00
64616;BME280;51027;42.162;24.754;2023-05-23T02:11:54;99441.34;;;13.48;100.00
64616;BME280;51027;42.162;24.754;2023-05-23T02:14:21;99438.28;;;13.40;100.00
64616;BME280;51027;42.162;24.754;2023-05-23T02:16:46;99434.28;;;13.33;100.00
64616;BME280;51027;42.162;24.754;2023-05-23T02:19:11;99438.28;;;13.40;100.00
64616;BME280;51027;42.162;24.754;2023-05-23T02:21:37;99429.66;;;13.36;100.00
64616;BME280;51027;42.162;24.754;2023-05-23T02:24:02;99405.47;;;13.11;100.00
64616;BME280;51027;42.162;24.754;2023-05-23T02:26:28;99433.91;;;13.23;100.00
64616;BME280;51027;42.162;24.754;2023-05-23T02:28:53;99430.03;;;13.13;100.00
64616;BME280;51027;42.162;24.754;2023-05-23T02:31:19;99434.28;;;13.15;100.00
64616;BME280;51027;42.162;24.754;2023-05-23T02:33:44;99415.91;;;12.96;100.00
64616;BME280;51027;42.162;24.754;2023-05-23T02:36:10;99416.97;;;13.10;100.00
64616;BME280;51027;42.162;24.754;2023-05-23T02:38:35;99436.06;;;13.15;100.00
64616;BME280;51027;42.162;24.754;2023-05-23T02:41:00;99435.91;;;13.18;100.00
64616;BME280;51027;42.162;24.754;2023-05-23T02:43:26;99432.13;;;13.06;100.00
64616;BME280;51027;42.162;24.754;2023-05-23T02:45:52;99439.75;;;13.12;100.00
64616;BME280;51027;42.162;24.754;2023-05-23T02:48:17;99429.66;;;13.20;100.00
64616;BME280;51027;42.162;24.754;2023-05-23T02:50:43;99411.44;;;13.14;100.00
64616;BME280;51027;42.162;24.754;2023-05-23T02:53:08;99436.47;;;13.24;100.00
64616;BME280;51027;42.162;24.754;2023-05-23T02:55:33;99434.16;;;13.18;100.00
64616;BME280;51027;42.162;24.754;2023-05-23T02:57:59;99426.56;;;13.28;100.00
64616;BME280;51027;42.162;24.754;2023-05-23T03:00:24;99428.72;;;13.37;100.00
64616;BME280;51027;42.162;24.754;2023-05-23T03:02:50;99426.69;;;13.42;100.00
64616;BME280;51027;42.162;24.754;2023-05-23T03:05:15;99429.84;;;13.33;100.00
64616;BME280;51027;42.162;24.754;2023-05-23T03:07:41;99431.53;;;13.34;100.00
64616;BME280;51027;42.162;24.754;2023-05-23T03:10:07;99409.84;;;13.27;100.00
64616;BME280;51027;42.162;24.754;2023-05-23T03:12:32;99432.75;;;13.44;100.00
64616;BME280;51027;42.162;24.754;2023-05-23T03:14:58;99433.34;;;13.49;100.00
64616;BME280;51027;42.162;24.754;2023-05-23T03:17:26;99403.03;;;13.23;100.00
64616;BME280;51027;42.162;24.754;2023-05-23T03:19:51;99424.72;;;13.30;100.00
64616;BME280;51027;42.162;24.754;2023-05-23T03:22:17;99441.44;;;13.46;100.00
64616;BME280;51027;42.162;24.754;2023-05-23T03:24:42;99415.50;;;13.21;100.00
64616;BME280;51027;42.162;24.754;2023-05-23T03:27:08;99433.75;;;13.26;100.00
64616;BME280;51027;42.162;24.754;2023-05-23T03:29:33;99436.50;;;13.40;100.00
64616;BME280;51027;42.162;24.754;2023-05-23T03:31:58;99412.09;;;13.18;100.00
64616;BME280;51027;42.162;24.754;2023-05-23T03:34:24;99433.69;;;13.10;100.00
64616;BME280;51027;42.162;24.754;2023-05-23T03:36:51;99428.22;;;13.13;100.00
64616;BME280;51027;42.162;24.754;2023-05-23T03:39:16;99436.56;;;13.23;100.00
64616;BME280;51027;42.162;24.754;2023-05-23T03:41:42;99433.94;;;13.06;100.00
64616;BME280;51027;42.162;24.754;2023-05-23T03:44:07;99434.88;;;13.05;100.00
64616;BME280;51027;42.162;24.754;2023-05-23T03:46:33;99427.19;;;13.00;100.00
64616;BME280;51027;42.162;24.754;2023-05-23T03:48:58;99437.88;;;13.14;100.00
64616;BME280;51027;42.162;24.754;2023-05-23T03:51:24;99437.66;;;13.19;100.00
64616;BME280;51027;42.162;24.754;2023-05-23T03:53:49;99432.66;;;13.30;100.00
64616;BME280;51027;42.162;24.754;2023-05-23T03:56:15;99431.31;;;13.39;100.00
64616;BME280;51027;42.162;24.754;2023-05-23T03:58:40;99428.47;;;13.58;100.00
64616;BME280;51027;42.162;24.754;2023-05-23T04:01:05;99431.28;;;13.86;100.00
64616;BME280;51027;42.162;24.754;2023-05-23T04:03:31;99437.41;;;14.02;100.00
64616;BME280;51027;42.162;24.754;2023-05-23T04:05:58;99429.94;;;14.09;100.00
64616;BME280;51027;42.162;24.754;2023-05-23T04:08:25;99429.38;;;14.34;100.00
64616;BME280;51027;42.162;24.754;2023-05-23T04:10:51;99436.94;;;14.56;100.00
64616;BME280;51027;42.162;24.754;2023-05-23T04:13:16;99441.97;;;14.60;100.00
64616;BME280;51027;42.162;24.754;2023-05-23T04:15:41;99369.19;;;14.22;100.00
64616;BME280;51027;42.162;24.754;2023-05-23T04:18:07;99449.97;;;14.89;100.00
64616;BME280;51027;42.162;24.754;2023-05-23T04:20:33;99445.44;;;15.05;100.00
64616;BME280;51027;42.162;24.754;2023-05-23T04:22:58;99441.75;;;14.93;100.00
64616;BME280;51027;42.162;24.754;2023-05-23T04:25:24;99463.22;;;14.89;100.00
64616;BME280;51027;42.162;24.754;2023-05-23T04:27:50;99450.63;;;14.78;100.00
64616;BME280;51027;42.162;24.754;2023-05-23T04:30:16;99454.22;;;14.77;100.00
64616;BME280;51027;42.162;24.754;2023-05-23T04:32:42;99446.56;;;15.01;100.00
64616;BME280;51027;42.162;24.754;2023-05-23T04:35:08;99454.50;;;15.01;100.00
64616;BME280;51027;42.162;24.754;2023-05-23T04:37:34;99461.25;;;15.07;100.00
64616;BME280;51027;42.162;24.754;2023-05-23T04:40:02;99453.75;;;14.99;100.00
64616;BME280;51027;42.162;24.754;2023-05-23T04:42:28;99461.25;;;15.07;100.00
64616;BME280;51027;42.162;24.754;2023-05-23T04:44:53;99463.06;;;15.20;100.00
64616;BME280;51027;42.162;24.754;2023-05-23T04:47:21;99454.63;;;15.28;100.00
64616;BME280;51027;42.162;24.754;2023-05-23T04:49:48;99456.13;;;15.46;100.00
64616;BME280;51027;42.162;24.754;2023-05-23T04:52:14;99460.13;;;15.39;100.00
64616;BME280;51027;42.162;24.754;2023-05-23T04:54:39;99452.06;;;15.55;100.00
64616;BME280;51027;42.162;24.754;2023-05-23T04:57:09;99470.63;;;15.69;100.00
64616;BME280;51027;42.162;24.754;2023-05-23T04:59:34;99460.59;;;15.74;100.00
64616;BME280;51027;42.162;24.754;2023-05-23T05:02:00;99466.69;;;15.89;100.00
64616;BME280;51027;42.162;24.754;2023-05-23T05:04:25;99453.59;;;16.13;100.00
64616;BME280;51027;42.162;24.754;2023-05-23T05:06:50;99468.53;;;16.16;100.00
64616;BME280;51027;42.162;24.754;2023-05-23T05:09:17;99463.13;;;16.30;100.00
64616;BME280;51027;42.162;24.754;2023-05-23T05:11:43;99462.19;;;16.31;100.00
64616;BME280;51027;42.162;24.754;2023-05-23T05:14:08;99405.06;;;15.84;100.00
64616;BME280;51027;42.162;24.754;2023-05-23T05:16:33;99466.50;;;16.59;100.00
64616;BME280;51027;42.162;24.754;2023-05-23T05:19:00;99473.72;;;16.17;100.00
64616;BME280;51027;42.162;24.754;2023-05-23T05:21:25;99474.72;;;16.02;100.00
64616;BME280;51027;42.162;24.754;2023-05-23T05:23:51;99471.03;;;16.04;100.00
64616;BME280;51027;42.162;24.754;2023-05-23T05:26:16;99447.19;;;16.03;100.00
64616;BME280;51027;42.162;24.754;2023-05-23T05:28:42;99472.44;;;16.23;100.00
64616;BME280;51027;42.162;24.754;2023-05-23T05:31:07;99472.66;;;16.20;100.00
64616;BME280;51027;42.162;24.754;2023-05-23T05:33:34;99479.06;;;16.03;100.00
64616;BME280;51027;42.162;24.754;2023-05-23T05:36:04;99488.81;;;16.17;100.00
64616;BME280;51027;42.162;24.754;2023-05-23T05:38:30;99472.78;;;16.18;100.00
64616;BME280;51027;42.162;24.754;2023-05-23T05:40:56;99481.22;;;16.25;100.00
64616;BME280;51027;42.162;24.754;2023-05-23T05:43:21;99467.25;;;16.21;100.00
64616;BME280;51027;42.162;24.754;2023-05-23T05:45:47;99483.56;;;16.42;100.00
64616;BME280;51027;42.162;24.754;2023-05-23T05:48:12;99483.47;;;16.43;100.00
64616;BME280;51027;42.162;24.754;2023-05-23T05:50:38;99481.72;;;16.57;100.00
64616;BME280;51027;42.162;24.754;2023-05-23T05:53:03;99489.47;;;16.60;100.00
64616;BME280;51027;42.162;24.754;2023-05-23T05:55:28;99479.56;;;16.89;100.00
64616;BME280;51027;42.162;24.754;2023-05-23T05:57:54;99471.56;;;17.02;100.00
64616;BME280;51027;42.162;24.754;2023-05-23T06:00:20;99485.72;;;17.15;100.00
64616;BME280;51027;42.162;24.754;2023-05-23T06:02:46;99486.38;;;17.18;100.00
64616;BME280;51027;42.162;24.754;2023-05-23T06:05:12;99477.97;;;17.37;100.00
64616;BME280;51027;42.162;24.754;2023-05-23T06:07:39;99495.38;;;17.79;100.00
64616;BME280;51027;42.162;24.754;2023-05-23T06:10:05;99488.25;;;18.04;100.00
64616;BME280;51027;42.162;24.754;2023-05-23T06:12:31;99476.81;;;17.91;100.00
64616;BME280;51027;42.162;24.754;2023-05-23T06:14:57;99483.41;;;18.22;100.00
64616;BME280;51027;42.162;24.754;2023-05-23T06:17:22;99478.88;;;18.46;100.00
64616;BME280;51027;42.162;24.754;2023-05-23T06:19:48;99479.97;;;18.67;100.00
64616;BME280;51027;42.162;24.754;2023-05-23T06:22:13;99479.75;;;18.70;100.00
64616;BME280;51027;42.162;24.754;2023-05-23T06:24:38;99487.84;;;18.69;100.00
64616;BME280;51027;42.162;24.754;2023-05-23T06:27:04;99488.25;;;18.52;100.00
64616;BME280;51027;42.162;24.754;2023-05-23T06:29:29;99482.28;;;18.48;100.00
64616;BME280;51027;42.162;24.754;2023-05-23T06:31:59;99468.19;;;18.35;100.00
64616;BME280;51027;42.162;24.754;2023-05-23T06:34:25;99474.94;;;18.52;100.00
64616;BME280;51027;42.162;24.754;2023-05-23T06:36:50;99477.63;;;18.63;100.00
64616;BME280;51027;42.162;24.754;2023-05-23T06:39:16;99473.69;;;18.45;100.00
64616;BME280;51027;42.162;24.754;2023-05-23T06:41:41;99484.00;;;18.73;100.00
64616;BME280;51027;42.162;24.754;2023-05-23T06:44:07;99470.81;;;18.83;100.00
64616;BME280;51027;42.162;24.754;2023-05-23T06:46:32;99477.88;;;18.60;100.00
64616;BME280;51027;42.162;24.754;2023-05-23T06:48:57;99471.50;;;18.74;100.00
64616;BME280;51027;42.162;24.754;2023-05-23T06:51:23;99479.13;;;19.13;100.00
64616;BME280;51027;42.162;24.754;2023-05-23T06:53:48;99468.31;;;19.37;100.00
64616;BME280;51027;42.162;24.754;2023-05-23T06:56:14;99465.53;;;19.27;100.00
64616;BME280;51027;42.162;24.754;2023-05-23T06:58:39;99452.16;;;19.50;100.00
64616;BME280;51027;42.162;24.754;2023-05-23T07:01:05;99465.41;;;19.29;100.00
64616;BME280;51027;42.162;24.754;2023-05-23T07:03:30;99454.09;;;19.48;100.00
64616;BME280;51027;42.162;24.754;2023-05-23T07:05:56;99464.34;;;19.65;100.00
64616;BME280;51027;42.162;24.754;2023-05-23T07:08:22;99457.16;;;19.77;100.00
64616;BME280;51027;42.162;24.754;2023-05-23T07:10:47;99451.03;;;19.97;100.00
64616;BME280;51027;42.162;24.754;2023-05-23T07:13:13;99456.84;;;20.13;100.00
64616;BME280;51027;42.162;24.754;2023-05-23T07:15:38;99457.63;;;20.25;100.00
64616;BME280;51027;42.162;24.754;2023-05-23T07:18:04;99447.50;;;19.97;100.00
64616;BME280;51027;42.162;24.754;2023-05-23T07:20:32;99454.63;;;20.51;100.00
64616;BME280;51027;42.162;24.754;2023-05-23T07:22:57;99451.53;;;20.66;100.00
64616;BME280;51027;42.162;24.754;2023-05-23T07:25:26;99451.03;;;20.82;100.00
64616;BME280;51027;42.162;24.754;2023-05-23T07:27:52;99424.03;;;20.64;100.00
64616;BME280;51027;42.162;24.754;2023-05-23T07:30:19;99455.81;;;20.79;100.00
64616;BME280;51027;42.162;24.754;2023-05-23T07:32:46;99445.16;;;21.09;100.00
64616;BME280;51027;42.162;24.754;2023-05-23T07:35:12;99446.31;;;20.86;84.30
64616;BME280;51027;42.162;24.754;2023-05-23T07:37:38;99416.50;;;21.00;80.52
64616;BME280;51027;42.162;24.754;2023-05-23T07:40:07;99436.16;;;21.41;79.15
64616;BME280;51027;42.162;24.754;2023-05-23T07:42:34;99446.91;;;21.20;73.63
64616;BME280;51027;42.162;24.754;2023-05-23T07:44:59;99444.41;;;21.59;74.22
64616;BME280;51027;42.162;24.754;2023-05-23T07:47:25;99438.38;;;21.66;74.27
64616;BME280;51027;42.162;24.754;2023-05-23T07:49:51;99416.94;;;21.76;73.14
64616;BME280;51027;42.162;24.754;2023-05-23T07:52:17;99453.13;;;22.01;73.19
64616;BME280;51027;42.162;24.754;2023-05-23T07:54:43;99440.41;;;21.93;72.18
64616;BME280;51027;42.162;24.754;2023-05-23T07:57:08;99437.59;;;22.04;72.36
64616;BME280;51027;42.162;24.754;2023-05-23T07:59:34;99396.25;;;21.97;72.46
64616;BME280;51027;42.162;24.754;2023-05-23T08:02:00;99430.03;;;22.29;70.69
64616;BME280;51027;42.162;24.754;2023-05-23T08:04:26;99434.25;;;22.22;67.60
64616;BME280;51027;42.162;24.754;2023-05-23T08:06:52;99426.38;;;22.30;69.29
64616;BME280;51027;42.162;24.754;2023-05-23T08:09:18;99434.50;;;22.67;69.35
64616;BME280;51027;42.162;24.754;2023-05-23T08:11:43;99433.41;;;22.60;68.78
64616;BME280;51027;42.162;24.754;2023-05-23T08:14:08;99434.25;;;22.70;67.44
64616;BME280;51027;42.162;24.754;2023-05-23T08:16:34;99381.44;;;22.51;68.79
64616;BME280;51027;42.162;24.754;2023-05-23T08:19:02;99432.25;;;22.82;66.98
64616;BME280;51027;42.162;24.754;2023-05-23T08:21:27;99431.81;;;22.96;66.71
64616;BME280;51027;42.162;24.754;2023-05-23T08:23:52;99425.75;;;22.84;64.09
64616;BME280;51027;42.162;24.754;2023-05-23T08:26:18;99414.16;;;22.93;63.94
64616;BME280;51027;42.162;24.754;2023-05-23T08:28:43;99416.00;;;22.93;65.11
64616;BME280;51027;42.162;24.754;2023-05-23T08:31:09;99428.22;;;23.15;63.33
64616;BME280;51027;42.162;24.754;2023-05-23T08:33:35;99410.72;;;23.38;62.55
64616;BME280;51027;42.162;24.754;2023-05-23T08:36:01;99426.75;;;23.57;60.43
64616;BME280;51027;42.162;24.754;2023-05-23T08:38:26;99424.25;;;23.83;59.01
64616;BME280;51027;42.162;24.754;2023-05-23T08:40:51;99426.09;;;24.01;57.63
64616;BME280;51027;42.162;24.754;2023-05-23T08:43:19;99414.97;;;23.96;57.27
64616;BME280;51027;42.162;24.754;2023-05-23T08:45:44;99426.22;;;24.45;55.03
64616;BME280;51027;42.162;24.754;2023-05-23T08:48:13;99421.78;;;24.35;55.64
64616;BME280;51027;42.162;24.754;2023-05-23T08:50:42;99408.66;;;24.05;56.95
64616;BME280;51027;42.162;24.754;2023-05-23T08:53:16;99424.06;;;24.12;55.11
64616;BME280;51027;42.162;24.754;2023-05-23T08:55:48;99414.47;;;23.55;55.82
64616;BME280;51027;42.162;24.754;2023-05-23T08:58:16;99423.06;;;23.68;54.18
64616;BME280;51027;42.162;24.754;2023-05-23T09:00:45;99418.19;;;24.17;54.89
64616;BME280;51027;42.162;24.754;2023-05-23T09:03:11;99416.13;;;24.29;55.30
64616;BME280;51027;42.162;24.754;2023-05-23T09:05:37;99384.97;;;23.91;54.48
64616;BME280;51027;42.162;24.754;2023-05-23T09:08:02;99412.28;;;24.67;55.44
64616;BME280;51027;42.162;24.754;2023-05-23T09:10:28;99406.41;;;24.71;55.41
64616;BME280;51027;42.162;24.754;2023-05-23T09:12:54;99384.75;;;24.55;55.14
64616;BME280;51027;42.162;24.754;2023-05-23T09:15:20;99412.53;;;24.82;54.26
64616;BME280;51027;42.162;24.754;2023-05-23T09:17:46;99409.69;;;24.22;56.03
64616;BME280;51027;42.162;24.754;2023-05-23T09:20:13;99418.03;;;24.01;57.64
64616;BME280;51027;42.162;24.754;2023-05-23T09:22:40;99406.28;;;24.02;55.86
64616;BME280;51027;42.162;24.754;2023-05-23T09:25:09;99414.41;;;23.74;57.49
64616;BME280;51027;42.162;24.754;2023-05-23T09:27:35;99414.81;;;23.97;56.36
64616;BME280;51027;42.162;24.754;2023-05-23T09:30:10;99406.47;;;24.80;53.64
64616;BME280;51027;42.162;24.754;2023-05-23T09:32:36;99413.44;;;24.47;52.68
64616;BME280;51027;42.162;24.754;2023-05-23T09:35:04;99406.41;;;24.00;53.23
64616;BME280;51027;42.162;24.754;2023-05-23T09:37:35;99415.56;;;23.90;53.74
64616;BME280;51027;42.162;24.754;2023-05-23T09:40:06;99410.28;;;23.70;53.47
64616;BME280;51027;42.162;24.754;2023-05-23T09:42:34;99414.16;;;23.58;53.98
64616;BME280;51027;42.162;24.754;2023-05-23T09:45:00;99410.09;;;23.54;56.38
64616;BME280;51027;42.162;24.754;2023-05-23T09:47:26;99373.97;;;23.29;55.04
64616;BME280;51027;42.162;24.754;2023-05-23T09:49:52;99403.47;;;23.48;53.47
64616;BME280;51027;42.162;24.754;2023-05-23T09:52:17;99281.94;;;22.62;54.15
64616;BME280;51027;42.162;24.754;2023-05-23T09:54:45;99403.53;;;23.66;52.47
64616;BME280;51027;42.162;24.754;2023-05-23T09:57:11;99386.78;;;23.45;52.42
64616;BME280;51027;42.162;24.754;2023-05-23T09:59:39;99405.16;;;23.49;52.64
64616;BME280;51027;42.162;24.754;2023-05-23T10:07:49;99392.81;;;23.84;53.62
64616;BME280;51027;42.162;24.754;2023-05-23T10:10:18;99396.50;;;23.83;52.75
64616;BME280;51027;42.162;24.754;2023-05-23T10:12:49;99391.41;;;23.62;54.45
64616;BME280;51027;42.162;24.754;2023-05-23T10:15:17;99386.66;;;23.74;52.94
64616;BME280;51027;42.162;24.754;2023-05-23T10:20:15;99396.50;;;23.83;54.20
64616;BME280;51027;42.162;24.754;2023-05-23T10:22:42;99388.66;;;23.90;55.16
64616;BME280;51027;42.162;24.754;2023-05-23T10:25:08;99393.97;;;23.99;51.41
64616;BME280;51027;42.162;24.754;2023-05-23T10:27:36;99393.19;;;23.89;50.93
64616;BME280;51027;42.162;24.754;2023-05-23T10:30:02;99388.94;;;23.69;50.27
64616;BME280;51027;42.162;24.754;2023-05-23T10:32:28;99394.09;;;23.62;51.57
64616;BME280;51027;42.162;24.754;2023-05-23T10:34:59;99393.09;;;23.63;52.08
64616;BME280;51027;42.162;24.754;2023-05-23T10:37:39;99384.63;;;23.48;52.28
64616;BME280;51027;42.162;24.754;2023-05-23T10:42:58;99383.16;;;23.91;53.70
64616;BME280;51027;42.162;24.754;2023-05-23T10:45:26;99358.41;;;23.60;51.92
64616;BME280;51027;42.162;24.754;2023-05-23T10:47:52;99325.75;;;24.26;50.91
64616;BME280;51027;42.162;24.754;2023-05-23T10:52:58;99360.09;;;24.94;49.91
64616;BME280;51027;42.162;24.754;2023-05-23T10:55:24;99354.09;;;24.82;49.37
64616;BME280;51027;42.162;24.754;2023-05-23T10:58:19;99367.25;;;24.59;49.05
64616;BME280;51027;42.162;24.754;2023-05-23T11:03:17;99365.00;;;25.33;50.21
64616;BME280;51027;42.162;24.754;2023-05-23T11:05:51;99358.38;;;25.61;52.00
64616;BME280;51027;42.162;24.754;2023-05-23T11:08:19;99374.22;;;25.64;49.15
64616;BME280;51027;42.162;24.754;2023-05-23T11:13:21;99365.53;;;25.95;49.96
64616;BME280;51027;42.162;24.754;2023-05-23T11:15:47;99349.03;;;25.90;51.21
64616;BME280;51027;42.162;24.754;2023-05-23T11:18:25;99352.34;;;25.25;49.49
64616;BME280;51027;42.162;24.754;2023-05-23T11:20:52;99367.47;;;25.18;51.78
64616;BME280;51027;42.162;24.754;2023-05-23T11:23:18;99360.53;;;25.49;49.78
64616;BME280;51027;42.162;24.754;2023-05-23T11:25:50;99370.81;;;26.12;48.82
64616;BME280;51027;42.162;24.754;2023-05-23T11:28:25;99367.97;;;26.55;48.60
64616;BME280;51027;42.162;24.754;2023-05-23T11:30:51;99372.50;;;26.22;46.88
64616;BME280;51027;42.162;24.754;2023-05-23T11:33:16;99373.84;;;26.26;47.63
64616;BME280;51027;42.162;24.754;2023-05-23T11:35:46;99366.44;;;26.52;46.75
64616;BME280;51027;42.162;24.754;2023-05-23T11:38:15;99369.28;;;26.34;46.47
64616;BME280;51027;42.162;24.754;2023-05-23T11:40:43;99370.00;;;26.36;46.51
64616;BME280;51027;42.162;24.754;2023-05-23T11:43:13;99361.69;;;25.97;46.59
64616;BME280;51027;42.162;24.754;2023-05-23T11:45:39;99375.47;;;25.78;48.25
64616;BME280;51027;42.162;24.754;2023-05-23T11:48:09;99380.59;;;25.47;48.21
64616;BME280;51027;42.162;24.754;2023-05-23T11:50:49;99380.06;;;25.51;46.95
64616;BME280;51027;42.162;24.754;2023-05-23T11:53:16;99374.78;;;25.25;48.86
64616;BME280;51027;42.162;24.754;2023-05-23T11:55:54;99375.06;;;25.22;49.94
64616;BME280;51027;42.162;24.754;2023-05-23T11:58:20;99364.22;;;25.06;48.02
64616;BME280;51027;42.162;24.754;2023-05-23T12:00:46;99371.97;;;25.09;49.35
64616;BME280;51027;42.162;24.754;2023-05-23T12:03:12;99351.66;;;25.23;49.62
64616;BME280;51027;42.162;24.754;2023-05-23T12:05:37;99363.69;;;25.37;49.85
64616;BME280;51027;42.162;24.754;2023-05-23T12:08:03;99377.94;;;25.21;56.82
64616;BME280;51027;42.162;24.754;2023-05-23T12:10:28;99378.09;;;24.93;57.97
64616;BME280;51027;42.162;24.754;2023-05-23T12:12:54;99375.72;;;24.90;58.88
64616;BME280;51027;42.162;24.754;2023-05-23T12:15:24;99347.63;;;24.67;58.47
64616;BME280;51027;42.162;24.754;2023-05-23T12:17:52;99374.69;;;25.09;58.03
64616;BME280;51027;42.162;24.754;2023-05-23T12:20:19;99366.47;;;25.19;56.33
64616;BME280;51027;42.162;24.754;2023-05-23T12:22:45;99370.69;;;25.21;55.79
64616;BME280;51027;42.162;24.754;2023-05-23T12:25:10;99362.81;;;25.28;55.46
64616;BME280;51027;42.162;24.754;2023-05-23T12:27:39;99362.88;;;25.10;55.19
64616;BME280;51027;42.162;24.754;2023-05-23T12:30:15;99358.88;;;25.14;54.38
64616;BME280;51027;42.162;24.754;2023-05-23T12:32:43;99332.41;;;25.10;54.13
64616;BME280;51027;42.162;24.754;2023-05-23T12:35:10;99347.19;;;25.40;54.42
64616;BME280;51027;42.162;24.754;2023-05-23T12:37:47;99349.84;;;25.32;55.07
64616;BME280;51027;42.162;24.754;2023-05-23T12:40:16;99336.63;;;25.12;55.27
64616;BME280;51027;42.162;24.754;2023-05-23T12:43:08;99326.78;;;25.37;55.54
64616;BME280;51027;42.162;24.754;2023-05-23T12:45:35;99311.09;;;25.33;54.44
64616;BME280;51027;42.162;24.754;2023-05-23T12:48:05;99305.78;;;25.07;54.10
64616;BME280;51027;42.162;24.754;2023-05-23T12:50:34;99333.19;;;25.36;53.42
64616;BME280;51027;42.162;24.754;2023-05-23T12:53:00;99293.75;;;25.01;53.15
64616;BME280;51027;42.162;24.754;2023-05-23T12:55:25;99311.88;;;25.17;53.10
64616;BME280;51027;42.162;24.754;2023-05-23T12:57:51;99329.47;;;25.37;53.38
64616;BME280;51027;42.162;24.754;2023-05-23T13:00:16;99323.44;;;25.51;54.67
64616;BME280;51027;42.162;24.754;2023-05-23T13:02:43;99327.66;;;25.46;53.68
64616;BME280;51027;42.162;24.754;2023-05-23T13:05:08;99310.94;;;25.34;53.41